sensor_id;sensor_type;location;lat;lon;timestamp;P1;durP1;ratioP1;P2;durP2;ratioP2
67508;SDS011;54354;44.724;11.284;2023-09-19T00:00:20;22.50;;;4.97;;
67508;SDS011;54354;44.724;11.284;2023-09-19T00:02:56;19.35;;;4.70;;
67508;SDS011;54354;44.724;11.284;2023-09-19T00:05:24;22.52;;;5.28;;
67508;SDS011;54354;44.724;11.284;2023-09-19T00:07:55;20.65;;;4.85;;
67508;SDS011;54354;44.724;11.284;2023-09-19T00:10:24;24.00;;;5.33;;
67508;SDS011;54354;44.724;11.284;2023-09-19T00:12:51;26.92;;;5.85;;
67508;SDS011;54354;44.724;11.284;2023-09-19T00:15:24;22.27;;;5.40;;
67508;SDS011;54354;44.724;11.284;2023-09-19T00:17:51;29.08;;;5.53;;
67508;SDS011;54354;44.724;11.284;2023-09-19T00:20:17;16.60;;;5.28;;
67508;SDS011;54354;44.724;11.284;2023-09-19T00:22:43;23.10;;;5.10;;
67508;SDS011;54354;44.724;11.284;2023-09-19T00:25:10;16.92;;;5.20;;
67508;SDS011;54354;44.724;11.284;2023-09-19T00:27:37;22.95;;;5.30;;
67508;SDS011;54354;44.724;11.284;2023-09-19T00:30:07;24.70;;;5.68;;
67508;SDS011;54354;44.724;11.284;2023-09-19T00:32:39;19.90;;;5.60;;
67508;SDS011;54354;44.724;11.284;2023-09-19T00:35:06;29.55;;;5.35;;
67508;SDS011;54354;44.724;11.284;2023-09-19T00:37:34;24.25;;;5.43;;
67508;SDS011;54354;44.724;11.284;2023-09-19T00:40:01;21.25;;;5.15;;
67508;SDS011;54354;44.724;11.284;2023-09-19T00:42:28;20.88;;;5.68;;
67508;SDS011;54354;44.724;11.284;2023-09-19T00:44:53;19.77;;;5.43;;
67508;SDS011;54354;44.724;11.284;2023-09-19T00:47:19;22.58;;;5.38;;
67508;SDS011;54354;44.724;11.284;2023-09-19T00:49:45;27.13;;;5.47;;
67508;SDS011;54354;44.724;11.284;2023-09-19T00:52:14;23.98;;;5.63;;
67508;SDS011;54354;44.724;11.284;2023-09-19T00:54:39;24.50;;;6.00;;
67508;SDS011;54354;44.724;11.284;2023-09-19T00:57:05;24.13;;;5.85;;
67508;SDS011;54354;44.724;11.284;2023-09-19T00:59:33;20.10;;;5.90;;
67508;SDS011;54354;44.724;11.284;2023-09-19T01:02:01;20.98;;;5.57;;
67508;SDS011;54354;44.724;11.284;2023-09-19T01:04:31;24.80;;;5.97;;
67508;SDS011;54354;44.724;11.284;2023-09-19T01:06:58;20.98;;;5.55;;
67508;SDS011;54354;44.724;11.284;2023-09-19T01:09:24;22.50;;;5.78;;
67508;SDS011;54354;44.724;11.284;2023-09-19T01:11:50;23.58;;;6.03;;
67508;SDS011;54354;44.724;11.284;2023-09-19T01:15:03;21.42;;;5.50;;
67508;SDS011;54354;44.724;11.284;2023-09-19T01:19:57;18.38;;;5.85;;
67508;SDS011;54354;44.724;11.284;2023-09-19T01:28:43;23.33;;;5.93;;
67508;SDS011;54354;44.724;11.284;2023-09-19T01:31:19;25.08;;;5.80;;
67508;SDS011;54354;44.724;11.284;2023-09-19T01:34:01;19.73;;;6.10;;
67508;SDS011;54354;44.724;11.284;2023-09-19T01:36:33;22.75;;;5.88;;
67508;SDS011;54354;44.724;11.284;2023-09-19T01:39:04;23.23;;;5.80;;
67508;SDS011;54354;44.724;11.284;2023-09-19T01:41:38;29.50;;;6.10;;
67508;SDS011;54354;44.724;11.284;2023-09-19T01:44:08;31.88;;;6.30;;
67508;SDS011;54354;44.724;11.284;2023-09-19T01:46:40;18.52;;;6.15;;
67508;SDS011;54354;44.724;11.284;2023-09-19T01:49:15;29.77;;;6.38;;
67508;SDS011;54354;44.724;11.284;2023-09-19T01:52:11;28.15;;;6.18;;
67508;SDS011;54354;44.724;11.284;2023-09-19T01:54:51;20.40;;;5.85;;
67508;SDS011;54354;44.724;11.284;2023-09-19T01:57:32;22.75;;;5.80;;
67508;SDS011;54354;44.724;11.284;2023-09-19T02:00:02;21.50;;;6.30;;
67508;SDS011;54354;44.724;11.284;2023-09-19T02:02:38;15.60;;;5.50;;
67508;SDS011;54354;44.724;11.284;2023-09-19T02:05:07;27.98;;;6.47;;
67508;SDS011;54354;44.724;11.284;2023-09-19T02:07:33;21.65;;;6.50;;
67508;SDS011;54354;44.724;11.284;2023-09-19T02:09:59;24.30;;;6.50;;
67508;SDS011;54354;44.724;11.284;2023-09-19T02:12:31;29.08;;;6.68;;
67508;SDS011;54354;44.724;11.284;2023-09-19T02:15:02;24.00;;;6.03;;
67508;SDS011;54354;44.724;11.284;2023-09-19T02:17:28;24.05;;;6.65;;
67508;SDS011;54354;44.724;11.284;2023-09-19T02:19:56;19.77;;;5.95;;
67508;SDS011;54354;44.724;11.284;2023-09-19T02:22:22;21.98;;;5.90;;
67508;SDS011;54354;44.724;11.284;2023-09-19T02:24:48;26.10;;;6.20;;
67508;SDS011;54354;44.724;11.284;2023-09-19T02:27:13;20.73;;;6.20;;
67508;SDS011;54354;44.724;11.284;2023-09-19T02:29:44;22.20;;;6.78;;
67508;SDS011;54354;44.724;11.284;2023-09-19T02:32:10;20.45;;;6.93;;
67508;SDS011;54354;44.724;11.284;2023-09-19T02:34:36;23.95;;;6.85;;
67508;SDS011;54354;44.724;11.284;2023-09-19T02:37:05;26.80;;;6.60;;
67508;SDS011;54354;44.724;11.284;2023-09-19T02:39:31;28.42;;;7.13;;
67508;SDS011;54354;44.724;11.284;2023-09-19T02:41:57;25.60;;;6.68;;
67508;SDS011;54354;44.724;11.284;2023-09-19T02:44:23;23.38;;;6.70;;
67508;SDS011;54354;44.724;11.284;2023-09-19T02:46:49;21.27;;;6.70;;
67508;SDS011;54354;44.724;11.284;2023-09-19T02:49:15;26.60;;;7.28;;
67508;SDS011;54354;44.724;11.284;2023-09-19T02:51:43;29.15;;;7.25;;
67508;SDS011;54354;44.724;11.284;2023-09-19T02:54:09;26.60;;;7.43;;
67508;SDS011;54354;44.724;11.284;2023-09-19T02:56:35;27.70;;;7.18;;
67508;SDS011;54354;44.724;11.284;2023-09-19T02:59:01;20.52;;;6.80;;
67508;SDS011;54354;44.724;11.284;2023-09-19T03:01:27;26.98;;;7.85;;
67508;SDS011;54354;44.724;11.284;2023-09-19T03:03:56;23.63;;;6.90;;
67508;SDS011;54354;44.724;11.284;2023-09-19T03:06:21;24.02;;;7.95;;
67508;SDS011;54354;44.724;11.284;2023-09-19T03:08:49;30.65;;;7.47;;
67508;SDS011;54354;44.724;11.284;2023-09-19T03:11:18;24.30;;;6.80;;
67508;SDS011;54354;44.724;11.284;2023-09-19T03:13:54;22.95;;;7.20;;
67508;SDS011;54354;44.724;11.284;2023-09-19T03:16:21;26.40;;;7.20;;
67508;SDS011;54354;44.724;11.284;2023-09-19T03:18:48;24.27;;;7.38;;
67508;SDS011;54354;44.724;11.284;2023-09-19T03:21:15;28.67;;;7.95;;
67508;SDS011;54354;44.724;11.284;2023-09-19T03:23:43;19.80;;;7.47;;
67508;SDS011;54354;44.724;11.284;2023-09-19T03:26:13;23.42;;;7.72;;
67508;SDS011;54354;44.724;11.284;2023-09-19T03:28:42;27.98;;;7.50;;
67508;SDS011;54354;44.724;11.284;2023-09-19T03:31:09;25.38;;;7.93;;
67508;SDS011;54354;44.724;11.284;2023-09-19T03:33:35;23.52;;;7.60;;
67508;SDS011;54354;44.724;11.284;2023-09-19T03:36:02;23.42;;;7.22;;
67508;SDS011;54354;44.724;11.284;2023-09-19T03:38:32;26.75;;;7.00;;
67508;SDS011;54354;44.724;11.284;2023-09-19T03:40:59;27.17;;;7.32;;
67508;SDS011;54354;44.724;11.284;2023-09-19T03:43:26;29.90;;;7.40;;
67508;SDS011;54354;44.724;11.284;2023-09-19T03:45:52;38.42;;;7.28;;
67508;SDS011;54354;44.724;11.284;2023-09-19T03:48:19;28.95;;;7.88;;
67508;SDS011;54354;44.724;11.284;2023-09-19T03:50:47;28.33;;;7.93;;
67508;SDS011;54354;44.724;11.284;2023-09-19T03:53:13;22.13;;;7.35;;
67508;SDS011;54354;44.724;11.284;2023-09-19T03:55:38;30.85;;;8.35;;
67508;SDS011;54354;44.724;11.284;2023-09-19T03:58:05;20.58;;;7.90;;
67508;SDS011;54354;44.724;11.284;2023-09-19T04:00:31;24.70;;;7.38;;
67508;SDS011;54354;44.724;11.284;2023-09-19T04:02:58;20.55;;;7.20;;
67508;SDS011;54354;44.724;11.284;2023-09-19T04:05:24;34.30;;;7.60;;
67508;SDS011;54354;44.724;11.284;2023-09-19T04:07:49;29.30;;;7.75;;
67508;SDS011;54354;44.724;11.284;2023-09-19T04:10:19;28.10;;;7.80;;
67508;SDS011;54354;44.724;11.284;2023-09-19T04:12:55;28.52;;;8.38;;
67508;SDS011;54354;44.724;11.284;2023-09-19T04:15:22;26.15;;;7.68;;
67508;SDS011;54354;44.724;11.284;2023-09-19T04:17:50;27.80;;;7.88;;
67508;SDS011;54354;44.724;11.284;2023-09-19T04:20:16;27.80;;;7.72;;
67508;SDS011;54354;44.724;11.284;2023-09-19T04:22:43;28.40;;;8.52;;
67508;SDS011;54354;44.724;11.284;2023-09-19T04:25:08;27.98;;;8.13;;
67508;SDS011;54354;44.724;11.284;2023-09-19T04:27:34;28.65;;;8.93;;
67508;SDS011;54354;44.724;11.284;2023-09-19T04:29:59;30.70;;;8.48;;
67508;SDS011;54354;44.724;11.284;2023-09-19T04:32:29;21.60;;;8.32;;
67508;SDS011;54354;44.724;11.284;2023-09-19T04:34:54;27.60;;;8.02;;
67508;SDS011;54354;44.724;11.284;2023-09-19T04:37:24;29.15;;;8.43;;
67508;SDS011;54354;44.724;11.284;2023-09-19T04:39:50;31.40;;;8.88;;
67508;SDS011;54354;44.724;11.284;2023-09-19T04:42:16;31.40;;;8.65;;
67508;SDS011;54354;44.724;11.284;2023-09-19T04:44:42;25.48;;;8.98;;
67508;SDS011;54354;44.724;11.284;2023-09-19T04:47:08;29.45;;;8.48;;
67508;SDS011;54354;44.724;11.284;2023-09-19T04:49:34;26.38;;;8.57;;
67508;SDS011;54354;44.724;11.284;2023-09-19T04:52:00;31.65;;;9.30;;
67508;SDS011;54354;44.724;11.284;2023-09-19T04:54:26;25.80;;;8.90;;
67508;SDS011;54354;44.724;11.284;2023-09-19T04:56:52;26.30;;;8.90;;
67508;SDS011;54354;44.724;11.284;2023-09-19T04:59:17;33.80;;;9.18;;
67508;SDS011;54354;44.724;11.284;2023-09-19T05:01:43;28.35;;;8.15;;
67508;SDS011;54354;44.724;11.284;2023-09-19T05:04:09;32.10;;;9.05;;
67508;SDS011;54354;44.724;11.284;2023-09-19T05:06:34;28.83;;;9.25;;
67508;SDS011;54354;44.724;11.284;2023-09-19T05:09:00;33.08;;;9.00;;
67508;SDS011;54354;44.724;11.284;2023-09-19T05:11:26;28.77;;;8.63;;
67508;SDS011;54354;44.724;11.284;2023-09-19T05:13:54;28.85;;;8.80;;
67508;SDS011;54354;44.724;11.284;2023-09-19T05:16:20;27.27;;;9.10;;
67508;SDS011;54354;44.724;11.284;2023-09-19T05:18:45;29.30;;;8.60;;
67508;SDS011;54354;44.724;11.284;2023-09-19T05:21:11;31.75;;;9.50;;
67508;SDS011;54354;44.724;11.284;2023-09-19T05:23:37;31.27;;;9.23;;
67508;SDS011;54354;44.724;11.284;2023-09-19T05:26:02;29.95;;;8.63;;
67508;SDS011;54354;44.724;11.284;2023-09-19T05:28:29;28.67;;;8.65;;
67508;SDS011;54354;44.724;11.284;2023-09-19T05:30:54;28.63;;;8.98;;
67508;SDS011;54354;44.724;11.284;2023-09-19T05:33:20;34.88;;;9.10;;
67508;SDS011;54354;44.724;11.284;2023-09-19T05:35:47;35.33;;;9.65;;
67508;SDS011;54354;44.724;11.284;2023-09-19T05:38:13;29.25;;;9.45;;
67508;SDS011;54354;44.724;11.284;2023-09-19T05:40:39;26.98;;;8.65;;
67508;SDS011;54354;44.724;11.284;2023-09-19T05:43:07;34.67;;;9.45;;
67508;SDS011;54354;44.724;11.284;2023-09-19T05:45:33;29.52;;;9.20;;
67508;SDS011;54354;44.724;11.284;2023-09-19T05:48:07;30.08;;;8.80;;
67508;SDS011;54354;44.724;11.284;2023-09-19T05:53:48;33.47;;;9.75;;
67508;SDS011;54354;44.724;11.284;2023-09-19T05:56:14;32.78;;;8.88;;
67508;SDS011;54354;44.724;11.284;2023-09-19T05:58:40;31.02;;;8.82;;
67508;SDS011;54354;44.724;11.284;2023-09-19T06:01:09;33.13;;;9.07;;
67508;SDS011;54354;44.724;11.284;2023-09-19T06:03:35;29.23;;;8.75;;
67508;SDS011;54354;44.724;11.284;2023-09-19T06:06:01;23.77;;;8.57;;
67508;SDS011;54354;44.724;11.284;2023-09-19T06:08:27;26.50;;;9.40;;
67508;SDS011;54354;44.724;11.284;2023-09-19T06:10:53;33.80;;;9.02;;
67508;SDS011;54354;44.724;11.284;2023-09-19T06:13:19;36.70;;;9.55;;
67508;SDS011;54354;44.724;11.284;2023-09-19T06:15:45;28.08;;;8.93;;
67508;SDS011;54354;44.724;11.284;2023-09-19T06:18:12;30.42;;;8.88;;
67508;SDS011;54354;44.724;11.284;2023-09-19T06:20:44;32.20;;;8.15;;
67508;SDS011;54354;44.724;11.284;2023-09-19T06:23:25;29.25;;;8.25;;
67508;SDS011;54354;44.724;11.284;2023-09-19T06:25:54;28.67;;;8.70;;
67508;SDS011;54354;44.724;11.284;2023-09-19T06:28:20;36.20;;;8.05;;
67508;SDS011;54354;44.724;11.284;2023-09-19T06:30:49;24.08;;;7.90;;
67508;SDS011;54354;44.724;11.284;2023-09-19T06:33:15;30.38;;;8.77;;
67508;SDS011;54354;44.724;11.284;2023-09-19T06:35:42;24.17;;;7.72;;
67508;SDS011;54354;44.724;11.284;2023-09-19T06:38:09;25.80;;;7.25;;
67508;SDS011;54354;44.724;11.284;2023-09-19T06:40:38;23.33;;;7.40;;
67508;SDS011;54354;44.724;11.284;2023-09-19T06:43:04;28.20;;;8.00;;
67508;SDS011;54354;44.724;11.284;2023-09-19T06:45:30;28.35;;;8.18;;
67508;SDS011;54354;44.724;11.284;2023-09-19T06:47:57;30.95;;;8.60;;
67508;SDS011;54354;44.724;11.284;2023-09-19T06:50:23;25.75;;;7.88;;
67508;SDS011;54354;44.724;11.284;2023-09-19T06:52:49;49.45;;;10.30;;
67508;SDS011;54354;44.724;11.284;2023-09-19T06:55:16;44.85;;;9.23;;
67508;SDS011;54354;44.724;11.284;2023-09-19T06:57:45;32.08;;;9.13;;
67508;SDS011;54354;44.724;11.284;2023-09-19T07:00:11;34.47;;;10.27;;
67508;SDS011;54354;44.724;11.284;2023-09-19T07:02:41;22.67;;;8.55;;
67508;SDS011;54354;44.724;11.284;2023-09-19T07:05:07;31.70;;;10.85;;
67508;SDS011;54354;44.724;11.284;2023-09-19T07:07:33;33.40;;;11.27;;
67508;SDS011;54354;44.724;11.284;2023-09-19T07:10:00;26.17;;;10.55;;
67508;SDS011;54354;44.724;11.284;2023-09-19T07:12:27;29.58;;;10.85;;
67508;SDS011;54354;44.724;11.284;2023-09-19T07:14:52;26.08;;;11.43;;
67508;SDS011;54354;44.724;11.284;2023-09-19T07:17:18;31.85;;;12.57;;
67508;SDS011;54354;44.724;11.284;2023-09-19T07:19:44;36.72;;;12.32;;
67508;SDS011;54354;44.724;11.284;2023-09-19T07:22:10;31.90;;;11.57;;
67508;SDS011;54354;44.724;11.284;2023-09-19T07:24:35;35.55;;;12.18;;
67508;SDS011;54354;44.724;11.284;2023-09-19T07:27:02;26.27;;;8.60;;
67508;SDS011;54354;44.724;11.284;2023-09-19T07:29:28;23.00;;;9.93;;
67508;SDS011;54354;44.724;11.284;2023-09-19T07:31:53;31.95;;;10.45;;
67508;SDS011;54354;44.724;11.284;2023-09-19T07:34:19;30.05;;;10.88;;
67508;SDS011;54354;44.724;11.284;2023-09-19T07:36:48;22.95;;;9.63;;
67508;SDS011;54354;44.724;11.284;2023-09-19T07:39:13;30.00;;;10.05;;
67508;SDS011;54354;44.724;11.284;2023-09-19T07:41:39;26.92;;;9.68;;
67508;SDS011;54354;44.724;11.284;2023-09-19T07:44:04;21.33;;;8.80;;
67508;SDS011;54354;44.724;11.284;2023-09-19T07:46:30;22.17;;;7.78;;
67508;SDS011;54354;44.724;11.284;2023-09-19T07:48:56;25.48;;;9.40;;
67508;SDS011;54354;44.724;11.284;2023-09-19T07:51:23;25.35;;;9.18;;
67508;SDS011;54354;44.724;11.284;2023-09-19T07:53:48;25.42;;;7.70;;
67508;SDS011;54354;44.724;11.284;2023-09-19T07:56:14;19.20;;;6.57;;
67508;SDS011;54354;44.724;11.284;2023-09-19T07:58:40;25.33;;;8.48;;
67508;SDS011;54354;44.724;11.284;2023-09-19T08:01:09;9.27;;;4.63;;
67508;SDS011;54354;44.724;11.284;2023-09-19T08:03:36;20.00;;;7.63;;
67508;SDS011;54354;44.724;11.284;2023-09-19T08:06:06;12.70;;;4.75;;
67508;SDS011;54354;44.724;11.284;2023-09-19T08:08:34;20.02;;;8.63;;
67508;SDS011;54354;44.724;11.284;2023-09-19T08:11:03;15.68;;;6.35;;
67508;SDS011;54354;44.724;11.284;2023-09-19T08:13:36;13.77;;;4.97;;
67508;SDS011;54354;44.724;11.284;2023-09-19T08:16:05;18.45;;;6.97;;
67508;SDS011;54354;44.724;11.284;2023-09-19T08:18:31;16.08;;;6.97;;
67508;SDS011;54354;44.724;11.284;2023-09-19T08:20:56;11.07;;;5.22;;
67508;SDS011;54354;44.724;11.284;2023-09-19T08:23:24;14.48;;;5.78;;
67508;SDS011;54354;44.724;11.284;2023-09-19T08:25:49;14.60;;;5.78;;
67508;SDS011;54354;44.724;11.284;2023-09-19T08:28:15;23.92;;;8.48;;
67508;SDS011;54354;44.724;11.284;2023-09-19T08:30:43;12.63;;;4.72;;
67508;SDS011;54354;44.724;11.284;2023-09-19T08:33:10;21.17;;;7.60;;
67508;SDS011;54354;44.724;11.284;2023-09-19T08:35:36;21.85;;;6.97;;
67508;SDS011;54354;44.724;11.284;2023-09-19T08:38:13;17.17;;;4.88;;
67508;SDS011;54354;44.724;11.284;2023-09-19T08:40:39;15.13;;;5.07;;
67508;SDS011;54354;44.724;11.284;2023-09-19T08:43:07;9.05;;;3.50;;
67508;SDS011;54354;44.724;11.284;2023-09-19T08:45:33;15.18;;;5.95;;
67508;SDS011;54354;44.724;11.284;2023-09-19T08:53:36;14.00;;;6.25;;
67508;SDS011;54354;44.724;11.284;2023-09-19T08:56:08;12.23;;;5.30;;
67508;SDS011;54354;44.724;11.284;2023-09-19T08:58:39;8.52;;;4.45;;
67508;SDS011;54354;44.724;11.284;2023-09-19T09:01:37;23.92;;;8.43;;
67508;SDS011;54354;44.724;11.284;2023-09-19T09:04:08;17.27;;;7.85;;
67508;SDS011;54354;44.724;11.284;2023-09-19T09:06:34;8.68;;;4.05;;
67508;SDS011;54354;44.724;11.284;2023-09-19T09:09:01;9.40;;;3.70;;
67508;SDS011;54354;44.724;11.284;2023-09-19T09:11:28;14.88;;;5.40;;
67508;SDS011;54354;44.724;11.284;2023-09-19T09:13:53;17.15;;;5.20;;
67508;SDS011;54354;44.724;11.284;2023-09-19T09:16:19;9.95;;;3.97;;
67508;SDS011;54354;44.724;11.284;2023-09-19T09:18:45;7.57;;;3.80;;
67508;SDS011;54354;44.724;11.284;2023-09-19T09:21:11;11.43;;;4.35;;
67508;SDS011;54354;44.724;11.284;2023-09-19T09:23:38;10.57;;;3.90;;
67508;SDS011;54354;44.724;11.284;2023-09-19T09:26:04;16.77;;;5.65;;
67508;SDS011;54354;44.724;11.284;2023-09-19T09:28:31;12.05;;;4.10;;
67508;SDS011;54354;44.724;11.284;2023-09-19T09:30:59;8.77;;;3.30;;
67508;SDS011;54354;44.724;11.284;2023-09-19T09:33:26;8.25;;;4.07;;
67508;SDS011;54354;44.724;11.284;2023-09-19T09:35:53;19.05;;;6.55;;
67508;SDS011;54354;44.724;11.284;2023-09-19T09:38:28;10.05;;;3.95;;
67508;SDS011;54354;44.724;11.284;2023-09-19T09:40:58;11.23;;;4.18;;
67508;SDS011;54354;44.724;11.284;2023-09-19T09:43:35;14.70;;;5.10;;
67508;SDS011;54354;44.724;11.284;2023-09-19T09:46:08;12.85;;;4.88;;
67508;SDS011;54354;44.724;11.284;2023-09-19T09:48:47;9.85;;;4.07;;
67508;SDS011;54354;44.724;11.284;2023-09-19T09:51:38;9.48;;;4.07;;
67508;SDS011;54354;44.724;11.284;2023-09-19T09:54:13;11.43;;;4.55;;
67508;SDS011;54354;44.724;11.284;2023-09-19T09:57:00;8.52;;;3.67;;
67508;SDS011;54354;44.724;11.284;2023-09-19T09:59:48;13.20;;;4.50;;
67508;SDS011;54354;44.724;11.284;2023-09-19T10:02:16;15.32;;;4.57;;
67508;SDS011;54354;44.724;11.284;2023-09-19T10:04:53;9.05;;;4.15;;
67508;SDS011;54354;44.724;11.284;2023-09-19T10:07:39;8.90;;;4.20;;
67508;SDS011;54354;44.724;11.284;2023-09-19T10:10:07;9.30;;;4.00;;
67508;SDS011;54354;44.724;11.284;2023-09-19T10:12:53;9.77;;;4.25;;
67508;SDS011;54354;44.724;11.284;2023-09-19T10:15:28;9.05;;;3.78;;
67508;SDS011;54354;44.724;11.284;2023-09-19T10:17:57;11.18;;;4.25;;
67508;SDS011;54354;44.724;11.284;2023-09-19T10:20:26;10.63;;;3.80;;
67508;SDS011;54354;44.724;11.284;2023-09-19T10:23:08;10.05;;;3.95;;
67508;SDS011;54354;44.724;11.284;2023-09-19T10:25:37;8.77;;;3.83;;
67508;SDS011;54354;44.724;11.284;2023-09-19T10:28:08;13.27;;;4.30;;
67508;SDS011;54354;44.724;11.284;2023-09-19T10:30:42;16.33;;;5.10;;
67508;SDS011;54354;44.724;11.284;2023-09-19T10:33:19;17.80;;;5.18;;
67508;SDS011;54354;44.724;11.284;2023-09-19T10:35:50;15.27;;;5.63;;
67508;SDS011;54354;44.724;11.284;2023-09-19T10:38:22;13.15;;;4.20;;
67508;SDS011;54354;44.724;11.284;2023-09-19T10:40:50;10.82;;;4.35;;
67508;SDS011;54354;44.724;11.284;2023-09-19T10:43:18;10.90;;;4.28;;
67508;SDS011;54354;44.724;11.284;2023-09-19T10:45:46;20.73;;;5.18;;
67508;SDS011;54354;44.724;11.284;2023-09-19T10:48:15;10.73;;;4.15;;
67508;SDS011;54354;44.724;11.284;2023-09-19T10:53:26;9.85;;;4.00;;
67508;SDS011;54354;44.724;11.284;2023-09-19T10:55:55;13.27;;;5.05;;
67508;SDS011;54354;44.724;11.284;2023-09-19T10:58:27;19.33;;;5.90;;
67508;SDS011;54354;44.724;11.284;2023-09-19T11:00:55;12.65;;;4.25;;
67508;SDS011;54354;44.724;11.284;2023-09-19T11:03:26;10.25;;;3.90;;
67508;SDS011;54354;44.724;11.284;2023-09-19T11:06:02;11.83;;;4.63;;
67508;SDS011;54354;44.724;11.284;2023-09-19T11:11:40;10.35;;;4.32;;
67508;SDS011;54354;44.724;11.284;2023-09-19T11:46:34;17.90;;;5.45;;
67508;SDS011;54354;44.724;11.284;2023-09-19T11:49:16;11.77;;;4.68;;
67508;SDS011;54354;44.724;11.284;2023-09-19T11:51:46;14.63;;;5.00;;
67508;SDS011;54354;44.724;11.284;2023-09-19T11:54:14;18.45;;;5.13;;
67508;SDS011;54354;44.724;11.284;2023-09-19T11:56:50;15.88;;;5.35;;
67508;SDS011;54354;44.724;11.284;2023-09-19T11:59:22;19.13;;;5.33;;
67508;SDS011;54354;44.724;11.284;2023-09-19T12:01:55;16.33;;;5.53;;
67508;SDS011;54354;44.724;11.284;2023-09-19T12:04:41;15.95;;;5.50;;
67508;SDS011;54354;44.724;11.284;2023-09-19T12:07:16;13.38;;;5.00;;
67508;SDS011;54354;44.724;11.284;2023-09-19T12:09:44;11.00;;;4.63;;
67508;SDS011;54354;44.724;11.284;2023-09-19T12:12:19;9.63;;;4.00;;
67508;SDS011;54354;44.724;11.284;2023-09-19T12:14:49;12.57;;;5.00;;
67508;SDS011;54354;44.724;11.284;2023-09-19T12:19:56;11.10;;;4.65;;
67508;SDS011;54354;44.724;11.284;2023-09-19T12:22:22;10.05;;;4.78;;
67508;SDS011;54354;44.724;11.284;2023-09-19T12:24:47;16.67;;;4.55;;
67508;SDS011;54354;44.724;11.284;2023-09-19T12:27:13;17.05;;;4.75;;
67508;SDS011;54354;44.724;11.284;2023-09-19T12:29:43;10.63;;;4.57;;
67508;SDS011;54354;44.724;11.284;2023-09-19T12:34:35;17.17;;;5.70;;
67508;SDS011;54354;44.724;11.284;2023-09-19T12:37:13;18.02;;;4.90;;
67508;SDS011;54354;44.724;11.284;2023-09-19T12:39:47;18.63;;;4.97;;
67508;SDS011;54354;44.724;11.284;2023-09-19T12:42:17;19.45;;;5.35;;
67508;SDS011;54354;44.724;11.284;2023-09-19T12:44:46;12.10;;;4.65;;
67508;SDS011;54354;44.724;11.284;2023-09-19T12:47:17;19.10;;;4.80;;
67508;SDS011;54354;44.724;11.284;2023-09-19T12:52:51;17.85;;;5.38;;
67508;SDS011;54354;44.724;11.284;2023-09-19T12:55:30;15.48;;;4.93;;
67508;SDS011;54354;44.724;11.284;2023-09-19T13:00:38;10.13;;;4.60;;
67508;SDS011;54354;44.724;11.284;2023-09-19T13:03:13;8.20;;;4.03;;
67508;SDS011;54354;44.724;11.284;2023-09-19T13:06:02;13.55;;;4.72;;
67508;SDS011;54354;44.724;11.284;2023-09-19T13:08:36;13.98;;;4.30;;
67508;SDS011;54354;44.724;11.284;2023-09-19T13:11:17;11.50;;;4.10;;
67508;SDS011;54354;44.724;11.284;2023-09-19T13:13:51;12.35;;;4.00;;
67508;SDS011;54354;44.724;11.284;2023-09-19T13:19:47;13.43;;;4.25;;
67508;SDS011;54354;44.724;11.284;2023-09-19T13:25:06;10.52;;;4.25;;
67508;SDS011;54354;44.724;11.284;2023-09-19T13:27:33;19.23;;;5.10;;
67508;SDS011;54354;44.724;11.284;2023-09-19T13:29:59;13.07;;;4.50;;
67508;SDS011;54354;44.724;11.284;2023-09-19T13:32:25;11.75;;;4.13;;
67508;SDS011;54354;44.724;11.284;2023-09-19T13:34:51;9.35;;;3.97;;
67508;SDS011;54354;44.724;11.284;2023-09-19T13:37:17;13.15;;;4.47;;
67508;SDS011;54354;44.724;11.284;2023-09-19T13:39:43;10.98;;;4.47;;
67508;SDS011;54354;44.724;11.284;2023-09-19T13:42:15;17.17;;;4.95;;
67508;SDS011;54354;44.724;11.284;2023-09-19T13:44:41;15.27;;;4.70;;
67508;SDS011;54354;44.724;11.284;2023-09-19T13:47:07;18.05;;;4.88;;
67508;SDS011;54354;44.724;11.284;2023-09-19T13:49:35;13.90;;;4.30;;
67508;SDS011;54354;44.724;11.284;2023-09-19T13:52:01;10.90;;;4.18;;
67508;SDS011;54354;44.724;11.284;2023-09-19T13:54:30;9.52;;;4.68;;
67508;SDS011;54354;44.724;11.284;2023-09-19T13:56:56;9.68;;;4.60;;
67508;SDS011;54354;44.724;11.284;2023-09-19T13:59:22;19.27;;;4.57;;
67508;SDS011;54354;44.724;11.284;2023-09-19T14:01:49;8.80;;;3.92;;
67508;SDS011;54354;44.724;11.284;2023-09-19T14:04:15;10.27;;;4.40;;
67508;SDS011;54354;44.724;11.284;2023-09-19T14:06:42;10.18;;;4.25;;
67508;SDS011;54354;44.724;11.284;2023-09-19T14:09:08;9.27;;;4.10;;
67508;SDS011;54354;44.724;11.284;2023-09-19T14:11:35;8.05;;;4.03;;
67508;SDS011;54354;44.724;11.284;2023-09-19T14:14:01;8.88;;;4.35;;
67508;SDS011;54354;44.724;11.284;2023-09-19T14:16:26;7.80;;;3.80;;
67508;SDS011;54354;44.724;11.284;2023-09-19T14:18:55;10.98;;;4.18;;
67508;SDS011;54354;44.724;11.284;2023-09-19T14:21:20;8.80;;;4.20;;
67508;SDS011;54354;44.724;11.284;2023-09-19T14:23:46;8.35;;;4.25;;
67508;SDS011;54354;44.724;11.284;2023-09-19T14:26:12;9.32;;;3.95;;
67508;SDS011;54354;44.724;11.284;2023-09-19T14:28:37;9.10;;;4.18;;
67508;SDS011;54354;44.724;11.284;2023-09-19T14:31:07;10.35;;;4.60;;
67508;SDS011;54354;44.724;11.284;2023-09-19T14:33:34;16.58;;;4.50;;
67508;SDS011;54354;44.724;11.284;2023-09-19T14:36:02;7.25;;;3.90;;
67508;SDS011;54354;44.724;11.284;2023-09-19T14:38:35;10.38;;;4.07;;
67508;SDS011;54354;44.724;11.284;2023-09-19T14:41:02;8.80;;;4.00;;
67508;SDS011;54354;44.724;11.284;2023-09-19T14:43:30;7.90;;;4.32;;
67508;SDS011;54354;44.724;11.284;2023-09-19T14:45:57;8.60;;;3.72;;
67508;SDS011;54354;44.724;11.284;2023-09-19T14:48:28;9.98;;;4.30;;
67508;SDS011;54354;44.724;11.284;2023-09-19T14:50:54;6.82;;;4.13;;
67508;SDS011;54354;44.724;11.284;2023-09-19T14:53:20;8.93;;;4.05;;
67508;SDS011;54354;44.724;11.284;2023-09-19T14:55:46;7.05;;;4.18;;
67508;SDS011;54354;44.724;11.284;2023-09-19T14:58:13;10.20;;;4.15;;
67508;SDS011;54354;44.724;11.284;2023-09-19T15:00:39;6.35;;;3.88;;
67508;SDS011;54354;44.724;11.284;2023-09-19T15:03:05;6.63;;;4.25;;
67508;SDS011;54354;44.724;11.284;2023-09-19T15:05:31;7.00;;;4.13;;
67508;SDS011;54354;44.724;11.284;2023-09-19T15:07:56;7.72;;;3.90;;
67508;SDS011;54354;44.724;11.284;2023-09-19T15:10:23;9.88;;;4.20;;
67508;SDS011;54354;44.724;11.284;2023-09-19T15:12:51;8.35;;;4.05;;
67508;SDS011;54354;44.724;11.284;2023-09-19T15:15:17;8.02;;;4.03;;
67508;SDS011;54354;44.724;11.284;2023-09-19T15:17:42;6.40;;;3.78;;
67508;SDS011;54354;44.724;11.284;2023-09-19T15:20:08;11.00;;;4.32;;
67508;SDS011;54354;44.724;11.284;2023-09-19T15:22:34;15.98;;;4.10;;
67508;SDS011;54354;44.724;11.284;2023-09-19T15:25:01;9.63;;;3.70;;
67508;SDS011;54354;44.724;11.284;2023-09-19T15:27:29;9.25;;;3.80;;
67508;SDS011;54354;44.724;11.284;2023-09-19T15:29:57;11.50;;;3.53;;
67508;SDS011;54354;44.724;11.284;2023-09-19T15:32:23;8.13;;;4.10;;
67508;SDS011;54354;44.724;11.284;2023-09-19T15:34:49;9.38;;;4.10;;
67508;SDS011;54354;44.724;11.284;2023-09-19T15:37:15;9.45;;;3.90;;
67508;SDS011;54354;44.724;11.284;2023-09-19T15:39:41;7.72;;;3.65;;
67508;SDS011;54354;44.724;11.284;2023-09-19T15:42:07;6.75;;;3.60;;
67508;SDS011;54354;44.724;11.284;2023-09-19T15:44:34;7.55;;;3.88;;